Terminal Aerodrome Forecast
Issued by NWS Duluth, MN

Home | Current Version | Previous Version | Text Only | Print | Product List | Glossary On
Versions: 1 2 3 4 5 6 7 8 9 10 11 12 13 14 15 16 17 18 19
665
FTUS43 KDLH 281537 AAD
TAFDLH
TAF AMD
KDLH 281537Z 2816/2912 33006KT P6SM VCTS SCT040 OVC050CB
     FM281700 28011G18KT P6SM VCSH SCT040 BKN060
      TEMPO 2818/2822 6SM TSRA SCT015CB BKN040CB
     FM290100 29009KT P6SM VCSH SCT025 BKN050
     FM290800 29007KT P6SM BKN008=

USA.gov is the U.S. government's official web portal to all federal, state and local government web resources and services.